Time;durP1;ratioP1;P1;durP2;ratioP2;P2;SDS_P1;SDS_P2;PMS_P1;PMS_P2;Temp;Humidity;BMP_temperature;BMP_pressure;BME280_temperature;BME280_humidity;BME280_pressure;Samples;Min_cycle;Max_cycle;Signal;HPM_P1;HPM_P2
2022/03/08 00:00:13;;;;;;;27.40;15.90;;;;;;;12.93;32.99;99297.63;1762794;80;21430;-65
2022/03/08 00:02:41;;;;;;;28.10;14.65;;;;;;;13.66;31.92;99296.88;1770354;80;22483;-62
2022/03/08 00:05:08;;;;;;;28.90;14.58;;;;;;;13.79;31.70;99293.02;1763436;80;21482;-62
2022/03/08 00:07:37;;;;;;;22.67;14.38;;;;;;;13.72;31.67;99295.65;1764519;80;21391;-63
2022/03/08 00:10:05;;;;;;;29.37;15.80;;;;;;;13.29;32.14;99297.73;1762782;80;21364;-65
2022/03/08 00:12:33;;;;;;;28.23;15.25;;;;;;;13.60;31.97;99298.09;1768790;80;21605;-65
2022/03/08 00:15:00;;;;;;;28.12;15.95;;;;;;;13.08;32.60;99299.00;1756558;80;22622;-65
2022/03/08 00:17:29;;;;;;;26.30;15.35;;;;;;;13.50;32.17;99297.41;1756966;80;21507;-64
2022/03/08 00:19:57;;;;;;;26.07;14.18;;;;;;;13.05;32.68;99297.38;1748379;80;20933;-64
2022/03/08 00:22:23;;;;;;;26.10;14.27;;;;;;;13.07;32.75;99295.49;1770294;80;21415;-63
2022/03/08 00:24:50;;;;;;;25.60;13.80;;;;;;;13.02;32.77;99291.82;1764379;80;21546;-62
2022/03/08 00:27:17;;;;;;;22.17;13.03;;;;;;;12.82;32.97;99292.97;1763038;80;22522;-62
2022/03/08 00:29:44;;;;;;;22.32;13.72;;;;;;;12.81;33.04;99290.44;1771884;80;21503;-62
2022/03/08 00:32:11;;;;;;;24.70;13.75;;;;;;;12.79;33.04;99287.88;1761136;80;21917;-62
2022/03/08 00:34:38;;;;;;;18.62;12.18;;;;;;;12.76;33.07;99288.52;1758831;80;21419;-65
2022/03/08 00:37:05;;;;;;;23.05;13.32;;;;;;;12.66;33.23;99293.00;1760511;79;20883;-62
2022/03/08 00:39:32;;;;;;;19.42;12.75;;;;;;;12.68;33.24;99294.69;1757103;80;21479;-62
2022/03/08 00:42:00;;;;;;;19.98;11.75;;;;;;;12.72;33.17;99283.89;1756973;80;21461;-63
2022/03/08 00:44:27;;;;;;;20.92;11.68;;;;;;;12.55;33.30;99291.45;1770587;80;21422;-62
2022/03/08 00:46:54;;;;;;;18.80;11.35;;;;;;;12.50;33.51;99289.53;1761911;80;21419;-62
2022/03/08 00:49:21;;;;;;;15.37;10.43;;;;;;;12.40;33.43;99289.20;1764100;80;21476;-62
2022/03/08 00:51:48;;;;;;;20.90;11.75;;;;;;;12.39;33.35;99287.96;1760054;79;22788;-62
2022/03/08 00:54:16;;;;;;;16.57;9.88;;;;;;;12.32;33.39;99280.88;1735189;80;20984;-62
2022/03/08 00:56:42;;;;;;;18.32;10.35;;;;;;;12.22;33.40;99279.23;1744307;80;21529;-62
2022/03/08 00:59:11;;;;;;;17.75;9.75;;;;;;;12.22;33.53;99275.72;1752968;80;21647;-62
2022/03/08 01:01:39;;;;;;;21.15;12.75;;;;;;;12.19;33.57;99275.43;1746577;80;21396;-63
2022/03/08 01:04:06;;;;;;;21.83;11.30;;;;;;;12.21;33.59;99275.36;1751693;80;22644;-62
2022/03/08 01:06:33;;;;;;;18.17;11.78;;;;;;;12.24;33.67;99285.70;1750898;80;21530;-62
2022/03/08 01:09:01;;;;;;;18.62;11.73;;;;;;;12.30;33.73;99280.12;1753257;80;21405;-63
2022/03/08 01:11:28;;;;;;;20.37;11.63;;;;;;;12.27;33.88;99275.00;1752709;80;21359;-63
2022/03/08 01:13:56;;;;;;;23.42;12.07;;;;;;;12.34;34.02;99278.13;1751182;80;22052;-63
2022/03/08 01:16:22;;;;;;;19.97;11.37;;;;;;;12.38;34.04;99279.20;1736145;80;22527;-64
2022/03/08 01:18:49;;;;;;;18.40;11.08;;;;;;;12.45;34.09;99279.70;1755428;80;21395;-61
2022/03/08 01:21:16;;;;;;;18.70;11.85;;;;;;;12.52;34.08;99276.27;1754474;80;21622;-63
2022/03/08 01:23:43;;;;;;;20.08;11.08;;;;;;;12.61;34.06;99273.95;1747683;80;21466;-63
2022/03/08 01:26:09;;;;;;;16.62;10.90;;;;;;;12.67;34.08;99276.70;1760032;80;21483;-63
2022/03/08 01:28:36;;;;;;;19.23;11.67;;;;;;;12.80;34.04;99278.17;1754969;80;22527;-60
2022/03/08 01:31:03;;;;;;;16.53;11.00;;;;;;;12.90;33.97;99272.73;1747485;80;21578;-62
2022/03/08 01:33:30;;;;;;;16.60;10.90;;;;;;;12.92;34.03;99274.84;1755892;80;21499;-62
2022/03/08 01:35:57;;;;;;;19.55;10.98;;;;;;;13.00;34.03;99268.63;1753389;80;29316;-60
2022/03/08 01:38:24;;;;;;;21.80;11.25;;;;;;;13.03;34.01;99272.42;1752146;80;21526;-63
2022/03/08 01:40:51;;;;;;;17.17;11.57;;;;;;;13.48;33.62;99261.84;1696403;83;22623;-62
2022/03/08 01:43:20;;;;;;;19.25;12.05;;;;;;;13.21;34.00;99262.55;1700194;83;21796;-62
2022/03/08 01:45:47;;;;;;;18.97;11.80;;;;;;;13.21;34.04;99258.58;1750272;80;20955;-64
2022/03/08 01:48:13;;;;;;;18.87;11.50;;;;;;;13.26;34.12;99260.97;1736986;80;21974;-66
2022/03/08 01:50:41;;;;;;;20.00;10.98;;;;;;;13.28;34.06;99260.84;1740904;80;22152;-64
2022/03/08 01:53:08;;;;;;;13.18;9.85;;;;;;;13.31;34.17;99257.59;1750485;80;22449;-64
2022/03/08 01:55:35;;;;;;;17.02;10.98;;;;;;;13.25;34.33;99267.17;1760969;80;29487;-64
2022/03/08 01:58:02;;;;;;;17.10;10.60;;;;;;;13.31;34.29;99260.23;1752437;80;21506;-64
2022/03/08 02:00:30;;;;;;;17.07;9.70;;;;;;;13.27;34.34;99260.00;1752248;80;20922;-64
2022/03/08 02:02:59;;;;;;;15.32;9.75;;;;;;;13.33;34.38;99260.98;1763004;80;20974;-63
2022/03/08 02:05:26;;;;;;;14.68;10.08;;;;;;;13.36;34.33;99254.20;1721117;82;22669;-63
2022/03/08 02:07:55;;;;;;;16.27;9.63;;;;;;;13.38;34.32;99251.48;1747438;80;21620;-62
2022/03/08 02:10:22;;;;;;;15.08;9.30;;;;;;;13.45;34.30;99255.45;1759005;80;21549;-62
2022/03/08 02:12:49;;;;;;;18.40;9.30;;;;;;;13.44;34.29;99255.91;1757092;80;21511;-63
2022/03/08 02:15:26;;;;;;;15.88;9.20;;;;;;;13.45;34.24;99258.09;1767182;80;21533;-63
2022/03/08 02:17:56;;;;;;;14.75;10.38;;;;;;;13.38;34.32;99259.41;1764923;80;22578;-61
2022/03/08 02:20:23;;;;;;;15.30;9.28;;;;;;;13.26;34.43;99258.33;1761822;80;21452;-61
2022/03/08 02:22:51;;;;;;;16.15;10.82;;;;;;;13.23;34.53;99258.02;1754557;80;21505;-64
2022/03/08 02:25:19;;;;;;;17.50;11.22;;;;;;;13.24;34.55;99255.77;1763206;80;21443;-62
2022/03/08 02:27:49;;;;;;;17.73;11.03;;;;;;;13.32;34.42;99257.14;1753558;80;21556;-62
2022/03/08 02:30:16;;;;;;;20.92;12.85;;;;;;;13.35;34.35;99257.78;1742490;80;22533;-62
2022/03/08 02:32:43;;;;;;;22.25;12.13;;;;;;;13.39;34.24;99257.13;1750862;80;21427;-62
2022/03/08 02:35:13;;;;;;;22.30;13.03;;;;;;;13.34;34.27;99257.41;1755714;80;21442;-62
2022/03/08 02:37:44;;;;;;;23.12;13.08;;;;;;;13.24;34.29;99257.54;1766866;80;21420;-62
2022/03/08 02:40:14;;;;;;;20.68;11.90;;;;;;;13.21;34.42;99263.86;1760386;80;21333;-62
2022/03/08 02:42:41;;;;;;;22.45;11.80;;;;;;;13.22;34.43;99255.46;1752279;80;22481;-62
2022/03/08 02:45:08;;;;;;;17.92;10.72;;;;;;;13.25;34.48;99260.57;1763295;80;21335;-62
2022/03/08 02:47:35;;;;;;;15.10;10.63;;;;;;;13.27;34.81;99261.33;1742123;80;21554;-62
2022/03/08 02:50:07;;;;;;;16.67;10.83;;;;;;;13.26;35.05;99268.89;1763109;80;21446;-62
2022/03/08 02:52:34;;;;;;;16.87;10.35;;;;;;;13.28;35.12;99267.45;1758240;80;21598;-62
2022/03/08 02:55:02;;;;;;;16.82;11.43;;;;;;;13.64;35.16;99267.06;1759563;80;22470;-62
2022/03/08 02:57:29;;;;;;;17.35;10.58;;;;;;;13.89;34.36;99265.53;1753318;80;21526;-63
2022/03/08 02:59:56;;;;;;;19.07;11.70;;;;;;;13.85;40.63;99266.68;1754310;80;21454;-63
2022/03/08 03:02:23;;;;;;;23.13;11.07;;;;;;;13.89;46.81;99271.66;1761628;80;21683;-62
2022/03/08 03:04:49;;;;;;;36.77;16.07;;;;;;;13.93;49.48;99273.16;1764823;80;20926;-62
2022/03/08 03:07:16;;;;;;;28.38;15.65;;;;;;;13.50;43.81;99266.56;1754572;80;22753;-62
2022/03/08 03:09:43;;;;;;;29.67;16.17;;;;;;;13.82;43.62;99267.25;1762267;80;21428;-63
2022/03/08 03:12:10;;;;;;;33.13;16.07;;;;;;;21.00;42.09;99252.09;1767821;80;23182;-61
2022/03/08 03:14:37;;;;;;;26.75;15.93;;;;;;;19.60;36.62;99262.70;1756868;80;21498;-61
2022/03/08 03:17:05;;;;;;;37.13;16.75;;;;;;;19.09;35.12;99260.02;1748352;80;20950;-62
2022/03/08 03:19:32;;;;;;;25.77;16.00;;;;;;;18.93;36.08;99258.64;1762541;80;22386;-61
2022/03/08 03:22:00;;;;;;;29.50;14.90;;;;;;;18.57;34.84;99257.16;1759001;80;21482;-61
2022/03/08 03:24:27;;;;;;;25.88;15.20;;;;;;;18.31;34.23;99257.95;1769346;80;21530;-61
2022/03/08 03:26:53;;;;;;;27.13;15.10;;;;;;;17.59;36.30;99260.02;1750659;80;21561;-62
2022/03/08 03:29:20;;;;;;;32.85;14.98;;;;;;;17.33;35.10;99255.42;1763082;80;21541;-62
2022/03/08 03:31:47;;;;;;;25.00;14.55;;;;;;;17.22;33.81;99248.27;1755926;80;22353;-62
2022/03/08 03:34:13;;;;;;;25.17;12.85;;;;;;;17.12;33.87;99252.58;1769175;80;21546;-64
2022/03/08 03:36:40;;;;;;;27.60;13.27;;;;;;;16.75;33.31;99257.99;1752582;80;21492;-62
2022/03/08 03:39:09;;;;;;;22.15;12.78;;;;;;;16.57;32.41;99255.37;1751052;80;21486;-62
2022/03/08 03:41:36;;;;;;;24.23;13.48;;;;;;;16.44;33.84;99260.72;1762883;80;21508;-63
2022/03/08 03:44:03;;;;;;;24.92;14.03;;;;;;;16.44;33.04;99259.40;1757529;80;22363;-62
2022/03/08 03:46:30;;;;;;;23.30;13.22;;;;;;;16.64;31.96;99253.96;1756880;80;21475;-62
2022/03/08 03:48:57;;;;;;;22.30;13.60;;;;;;;16.79;31.72;99265.25;1761764;80;21494;-62
2022/03/08 03:51:24;;;;;;;26.43;13.07;;;;;;;16.79;31.71;99262.11;1753137;80;21546;-62
2022/03/08 03:53:50;;;;;;;21.57;12.35;;;;;;;16.77;31.41;99264.03;1754327;80;21777;-65
2022/03/08 03:56:17;;;;;;;22.90;12.13;;;;;;;16.65;31.45;99266.25;1762361;80;22396;-66
2022/03/08 03:58:44;;;;;;;17.70;10.85;;;;;;;16.44;31.62;99260.72;1763795;80;21585;-66
2022/03/08 04:01:11;;;;;;;15.32;10.80;;;;;;;16.24;34.86;99260.38;1750834;80;21726;-66
2022/03/08 04:03:37;;;;;;;16.48;9.78;;;;;;;16.11;32.90;99260.90;1762128;80;21047;-66
2022/03/08 04:06:05;;;;;;;18.30;9.33;;;;;;;15.92;35.23;99255.58;1759323;80;21001;-65
2022/03/08 04:08:33;;;;;;;12.70;8.65;;;;;;;15.98;35.23;99254.78;1747550;80;22433;-65
2022/03/08 04:11:01;;;;;;;14.63;8.75;;;;;;;16.11;33.11;99256.44;1760343;80;21296;-65
2022/03/08 04:13:28;;;;;;;12.78;7.85;;;;;;;16.15;32.52;99253.08;1760812;80;21498;-66
2022/03/08 04:15:55;;;;;;;12.43;7.80;;;;;;;16.01;32.91;99255.41;1747940;80;21524;-65
2022/03/08 04:18:21;;;;;;;12.40;8.00;;;;;;;15.72;35.03;99261.41;1760630;80;21450;-66
2022/03/08 04:20:48;;;;;;;11.78;7.83;;;;;;;15.82;33.31;99262.95;1760775;80;22462;-66
2022/03/08 04:23:15;;;;;;;13.58;8.43;;;;;;;15.77;32.94;99265.95;1769019;80;21600;-66
2022/03/08 04:25:42;;;;;;;13.10;9.45;;;;;;;15.88;32.71;99262.06;1761117;80;21600;-65
2022/03/08 04:28:09;;;;;;;13.45;8.65;;;;;;;15.73;32.56;99260.01;1754703;80;21607;-65
2022/03/08 04:30:36;;;;;;;14.63;9.53;;;;;;;15.78;32.55;99264.97;1758257;80;21507;-66
2022/03/08 04:33:03;;;;;;;14.40;9.43;;;;;;;15.67;32.60;99262.20;1755104;80;27236;-65
2022/03/08 04:35:30;;;;;;;14.60;9.93;;;;;;;15.65;32.60;99262.78;1760676;80;21482;-64
2022/03/08 04:38:00;;;;;;;13.70;8.73;;;;;;;15.61;33.65;99261.31;1750465;80;21449;-64
2022/03/08 04:40:26;;;;;;;15.40;9.03;;;;;;;15.66;32.90;99262.69;1767093;80;20964;-65
2022/03/08 04:42:53;;;;;;;13.93;8.80;;;;;;;15.61;32.78;99262.63;1755490;80;21478;-63
2022/03/08 04:45:20;;;;;;;14.45;8.98;;;;;;;15.53;32.69;99269.79;1748888;80;21510;-63
2022/03/08 04:47:47;;;;;;;13.25;8.70;;;;;;;15.41;32.94;99263.55;1767374;80;21344;-63
2022/03/08 04:50:16;;;;;;;14.58;8.55;;;;;;;15.44;32.83;99262.48;1755838;80;21562;-65
2022/03/08 04:52:44;;;;;;;14.15;8.75;;;;;;;15.64;32.70;99261.95;1759812;80;21546;-63
2022/03/08 04:55:12;;;;;;;13.85;8.68;;;;;;;15.85;32.34;99270.70;1717285;80;21084;-64
2022/03/08 04:57:38;;;;;;;14.40;8.35;;;;;;;15.81;32.29;99269.23;1761013;80;22348;-63
2022/03/08 05:00:07;;;;;;;18.67;9.50;;;;;;;15.74;32.38;99268.31;1770385;80;21366;-62
2022/03/08 05:02:34;;;;;;;11.53;7.55;;;;;;;15.73;32.23;99267.96;1726751;80;21526;-67
2022/03/08 05:05:01;;;;;;;14.67;9.00;;;;;;;15.68;32.28;99268.72;1768798;80;21003;-65
2022/03/08 05:07:28;;;;;;;11.70;8.88;;;;;;;15.65;32.23;99274.70;1761845;80;21886;-64
2022/03/08 05:09:54;;;;;;;13.08;9.70;;;;;;;15.54;32.26;99271.02;1773752;80;22406;-64
2022/03/08 05:12:21;;;;;;;14.83;10.05;;;;;;;15.49;32.29;99274.94;1759072;80;20858;-64
2022/03/08 05:14:48;;;;;;;14.78;9.40;;;;;;;15.31;32.48;99275.70;1763006;80;21400;-64
2022/03/08 05:17:16;;;;;;;15.72;10.08;;;;;;;15.26;32.66;99278.69;1755427;80;21461;-64
2022/03/08 05:19:42;;;;;;;14.47;9.63;;;;;;;15.29;32.69;99280.27;1761269;80;21461;-65
2022/03/08 05:22:10;;;;;;;;;;;;;;;15.35;32.70;99284.69;1761645;80;22453;-64
2022/03/08 05:24:36;;;;;;;17.15;9.65;;;;;;;15.32;32.80;99285.36;1765314;80;20781;-64
2022/03/08 05:27:05;;;;;;;17.80;11.20;;;;;;;15.19;32.86;99288.83;1769376;80;21394;-64
2022/03/08 05:29:32;;;;;;;15.55;9.85;;;;;;;15.01;33.11;99288.73;1760500;80;21504;-65
2022/03/08 05:31:59;;;;;;;20.17;10.48;;;;;;;14.98;33.24;99294.25;1766574;80;21498;-64
2022/03/08 05:34:26;;;;;;;18.15;10.95;;;;;;;15.03;33.18;99292.16;1694222;83;22451;-64
2022/03/08 05:36:53;;;;;;;23.10;11.97;;;;;;;15.08;33.26;99292.67;1691588;82;21464;-65
2022/03/08 05:39:20;;;;;;;23.07;12.65;;;;;;;15.09;33.19;99298.36;1727441;82;21497;-64
2022/03/08 05:41:47;;;;;;;23.10;12.47;;;;;;;15.04;33.25;99294.32;1704967;82;21577;-64
2022/03/08 05:44:13;;;;;;;23.35;12.55;;;;;;;14.93;33.33;99293.22;1714158;82;21533;-65
2022/03/08 05:46:40;;;;;;;21.10;12.55;;;;;;;15.03;33.28;99292.16;1726459;82;22497;-64
2022/03/08 05:49:07;;;;;;;22.52;11.88;;;;;;;15.05;33.23;99296.00;1724834;82;20961;-65
2022/03/08 05:51:34;;;;;;;18.93;10.80;;;;;;;14.98;33.07;99295.58;1725023;82;21516;-65
2022/03/08 05:54:01;;;;;;;19.10;11.28;;;;;;;15.00;33.23;99285.73;1726811;81;21483;-66
2022/03/08 05:56:28;;;;;;;13.25;8.40;;;;;;;15.08;33.21;99294.48;1731417;82;21529;-65
